Terminal Aerodrome Forecast
Issued by NWS

Home | Current Version | Previous Version | Graphics & Text | Print | Product List | Glossary Off
Versions: 1 2 3 4 5 6 7 8 9 10 11 12

000
FTUS43 KABR 212300
TAFMBG
TAF
KMBG 212322Z 2200/2224 17018KT P6SM SKC
     FM220900 15014KT P6SM OVC250
     FM221500 30007KT P6SM VCSH OVC050=

USA.gov is the U.S. government's official web portal to all federal, state and local government web resources and services.